LGSA/CHQ METAR and TAF weather

Enter ICAO airport designator
Station Type Date Time Source
LGSA METAR 2020/01/21 09:20 UTC NOAA

LGSA 210920Z 35005KT 9999 FEW020 BKN030 09/03 Q1035


Station Type Date Time Source
LGSA Decoded METAR 2020/01/21 09:20 UTC NOAA

Souda Airport , Greece (LGSA) 35-29N 024-07E 151M
Jan 21, 2020 - 04:20 AM EST / 2020.01.21 0920 UTC
Wind: from the N (350 degrees) at 6 MPH (5 KT):0
Visibility: greater than 7 mile(s):0
Sky conditions: mostly cloudy
Temperature: 48 F (9 C)
Dew Point: 37 F (3 C)
Relative Humidity: 66%
Pressure (altimeter): 30.56 in. Hg (1035 hPa)
ob: LGSA 210920Z 35005KT 9999 FEW020 BKN030 09/03 Q1035
cycle: 9

Station Type Date Time Source
LGSA TAF 2020/01/21 06:12 UTC NOAA

TAF LGSA 210500Z 2106/2206 01015G27KT 9999 SCT020 BKN030

Example: see airport list